sensor_id;sensor_type;location;lat;lon;timestamp;P1;durP1;ratioP1;P2;durP2;ratioP2
14907;SDS011;7545;52.092;7.006;2022-08-21T00:01:42;5.88;;;2.63;;
14907;SDS011;7545;52.092;7.006;2022-08-21T00:04:09;6.45;;;3.40;;
14907;SDS011;7545;52.092;7.006;2022-08-21T00:06:36;5.85;;;2.72;;
14907;SDS011;7545;52.092;7.006;2022-08-21T00:09:03;6.10;;;2.83;;
14907;SDS011;7545;52.092;7.006;2022-08-21T00:11:30;4.80;;;3.00;;
14907;SDS011;7545;52.092;7.006;2022-08-21T00:13:56;4.95;;;2.80;;
14907;SDS011;7545;52.092;7.006;2022-08-21T00:16:22;5.38;;;2.72;;
14907;SDS011;7545;52.092;7.006;2022-08-21T00:18:48;6.90;;;3.30;;
14907;SDS011;7545;52.092;7.006;2022-08-21T00:21:14;7.90;;;2.92;;
14907;SDS011;7545;52.092;7.006;2022-08-21T00:23:41;8.50;;;3.85;;
14907;SDS011;7545;52.092;7.006;2022-08-21T00:26:07;5.20;;;2.70;;
14907;SDS011;7545;52.092;7.006;2022-08-21T00:28:33;6.13;;;3.90;;
14907;SDS011;7545;52.092;7.006;2022-08-21T00:30:58;6.32;;;3.30;;
14907;SDS011;7545;52.092;7.006;2022-08-21T00:33:25;8.88;;;3.78;;
14907;SDS011;7545;52.092;7.006;2022-08-21T00:35:51;6.45;;;3.45;;
14907;SDS011;7545;52.092;7.006;2022-08-21T00:38:17;4.88;;;3.17;;
14907;SDS011;7545;52.092;7.006;2022-08-21T00:43:22;6.63;;;3.03;;
14907;SDS011;7545;52.092;7.006;2022-08-21T00:45:52;6.22;;;3.58;;
14907;SDS011;7545;52.092;7.006;2022-08-21T00:48:19;4.43;;;3.30;;
14907;SDS011;7545;52.092;7.006;2022-08-21T00:53:32;5.97;;;3.35;;
14907;SDS011;7545;52.092;7.006;2022-08-21T00:56:00;4.93;;;3.25;;
14907;SDS011;7545;52.092;7.006;2022-08-21T00:58:28;8.07;;;3.35;;
14907;SDS011;7545;52.092;7.006;2022-08-21T01:00:56;4.15;;;3.13;;
14907;SDS011;7545;52.092;7.006;2022-08-21T01:03:23;5.80;;;3.35;;
14907;SDS011;7545;52.092;7.006;2022-08-21T01:05:50;5.63;;;3.60;;
14907;SDS011;7545;52.092;7.006;2022-08-21T01:08:17;4.40;;;3.28;;
14907;SDS011;7545;52.092;7.006;2022-08-21T01:10:44;8.48;;;3.38;;
14907;SDS011;7545;52.092;7.006;2022-08-21T01:13:12;5.53;;;3.10;;
14907;SDS011;7545;52.092;7.006;2022-08-21T01:15:42;5.55;;;3.40;;
14907;SDS011;7545;52.092;7.006;2022-08-21T01:18:11;5.28;;;3.83;;
14907;SDS011;7545;52.092;7.006;2022-08-21T01:20:38;5.47;;;3.13;;
14907;SDS011;7545;52.092;7.006;2022-08-21T01:23:08;4.88;;;3.60;;
14907;SDS011;7545;52.092;7.006;2022-08-21T01:25:34;7.38;;;4.00;;
14907;SDS011;7545;52.092;7.006;2022-08-21T01:28:01;4.03;;;3.63;;
14907;SDS011;7545;52.092;7.006;2022-08-21T01:30:31;5.45;;;3.92;;
14907;SDS011;7545;52.092;7.006;2022-08-21T01:32:59;4.47;;;3.40;;
14907;SDS011;7545;52.092;7.006;2022-08-21T01:35:25;4.65;;;3.40;;
14907;SDS011;7545;52.092;7.006;2022-08-21T01:37:51;4.45;;;3.30;;
14907;SDS011;7545;52.092;7.006;2022-08-21T01:40:17;5.32;;;3.47;;
14907;SDS011;7545;52.092;7.006;2022-08-21T01:42:43;5.72;;;3.83;;
14907;SDS011;7545;52.092;7.006;2022-08-21T01:45:11;7.82;;;3.60;;
14907;SDS011;7545;52.092;7.006;2022-08-21T01:47:37;7.85;;;4.47;;
14907;SDS011;7545;52.092;7.006;2022-08-21T01:50:04;5.38;;;3.30;;
14907;SDS011;7545;52.092;7.006;2022-08-21T01:52:31;4.97;;;3.67;;
14907;SDS011;7545;52.092;7.006;2022-08-21T01:54:57;6.45;;;3.75;;
14907;SDS011;7545;52.092;7.006;2022-08-21T01:57:23;6.22;;;3.55;;
14907;SDS011;7545;52.092;7.006;2022-08-21T01:59:49;5.88;;;3.60;;
14907;SDS011;7545;52.092;7.006;2022-08-21T02:02:15;5.60;;;3.65;;
14907;SDS011;7545;52.092;7.006;2022-08-21T02:04:40;5.60;;;3.78;;
14907;SDS011;7545;52.092;7.006;2022-08-21T02:07:06;7.95;;;4.15;;
14907;SDS011;7545;52.092;7.006;2022-08-21T02:09:32;6.82;;;4.00;;
14907;SDS011;7545;52.092;7.006;2022-08-21T02:11:58;8.68;;;3.95;;
14907;SDS011;7545;52.092;7.006;2022-08-21T02:14:24;4.82;;;3.50;;
14907;SDS011;7545;52.092;7.006;2022-08-21T02:16:50;5.18;;;3.88;;
14907;SDS011;7545;52.092;7.006;2022-08-21T02:19:16;5.05;;;3.85;;
14907;SDS011;7545;52.092;7.006;2022-08-21T02:21:42;4.53;;;3.70;;
14907;SDS011;7545;52.092;7.006;2022-08-21T02:24:08;5.25;;;4.13;;
14907;SDS011;7545;52.092;7.006;2022-08-21T02:26:34;6.97;;;3.72;;
14907;SDS011;7545;52.092;7.006;2022-08-21T02:29:00;6.68;;;3.72;;
14907;SDS011;7545;52.092;7.006;2022-08-21T02:31:26;5.05;;;3.75;;
14907;SDS011;7545;52.092;7.006;2022-08-21T02:33:52;5.85;;;4.32;;
14907;SDS011;7545;52.092;7.006;2022-08-21T02:36:17;5.70;;;3.97;;
14907;SDS011;7545;52.092;7.006;2022-08-21T02:38:43;5.40;;;4.03;;
14907;SDS011;7545;52.092;7.006;2022-08-21T02:41:11;7.55;;;4.13;;
14907;SDS011;7545;52.092;7.006;2022-08-21T02:43:41;6.70;;;3.88;;
14907;SDS011;7545;52.092;7.006;2022-08-21T02:46:07;5.13;;;3.95;;
14907;SDS011;7545;52.092;7.006;2022-08-21T02:48:33;6.78;;;4.45;;
14907;SDS011;7545;52.092;7.006;2022-08-21T02:51:01;7.40;;;4.45;;
14907;SDS011;7545;52.092;7.006;2022-08-21T02:53:30;5.75;;;4.05;;
14907;SDS011;7545;52.092;7.006;2022-08-21T02:55:57;4.70;;;4.20;;
14907;SDS011;7545;52.092;7.006;2022-08-21T02:58:25;6.70;;;4.03;;
14907;SDS011;7545;52.092;7.006;2022-08-21T03:00:55;5.85;;;4.10;;
14907;SDS011;7545;52.092;7.006;2022-08-21T03:03:21;6.22;;;3.78;;
14907;SDS011;7545;52.092;7.006;2022-08-21T03:05:47;6.38;;;3.90;;
14907;SDS011;7545;52.092;7.006;2022-08-21T03:08:13;6.82;;;4.20;;
14907;SDS011;7545;52.092;7.006;2022-08-21T03:10:42;10.35;;;5.18;;
14907;SDS011;7545;52.092;7.006;2022-08-21T03:13:11;7.45;;;4.28;;
14907;SDS011;7545;52.092;7.006;2022-08-21T03:15:38;6.05;;;4.40;;
14907;SDS011;7545;52.092;7.006;2022-08-21T03:18:05;8.50;;;4.85;;
14907;SDS011;7545;52.092;7.006;2022-08-21T03:20:32;7.50;;;4.15;;
14907;SDS011;7545;52.092;7.006;2022-08-21T03:23:00;5.90;;;4.25;;
14907;SDS011;7545;52.092;7.006;2022-08-21T03:25:29;8.00;;;4.65;;
14907;SDS011;7545;52.092;7.006;2022-08-21T03:27:59;9.25;;;4.45;;
14907;SDS011;7545;52.092;7.006;2022-08-21T03:30:25;5.85;;;3.92;;
14907;SDS011;7545;52.092;7.006;2022-08-21T03:32:51;6.10;;;4.20;;
14907;SDS011;7545;52.092;7.006;2022-08-21T03:35:17;7.70;;;4.35;;
14907;SDS011;7545;52.092;7.006;2022-08-21T03:37:45;9.25;;;4.38;;
14907;SDS011;7545;52.092;7.006;2022-08-21T03:40:13;6.43;;;4.43;;
14907;SDS011;7545;52.092;7.006;2022-08-21T03:42:40;6.90;;;3.70;;
14907;SDS011;7545;52.092;7.006;2022-08-21T03:45:06;5.25;;;3.75;;
14907;SDS011;7545;52.092;7.006;2022-08-21T03:47:33;5.32;;;4.18;;
14907;SDS011;7545;52.092;7.006;2022-08-21T03:49:58;7.05;;;4.20;;
14907;SDS011;7545;52.092;7.006;2022-08-21T03:52:24;5.40;;;3.72;;
14907;SDS011;7545;52.092;7.006;2022-08-21T03:54:50;4.70;;;4.00;;
14907;SDS011;7545;52.092;7.006;2022-08-21T03:57:16;4.75;;;3.50;;
14907;SDS011;7545;52.092;7.006;2022-08-21T03:59:42;8.13;;;4.38;;
14907;SDS011;7545;52.092;7.006;2022-08-21T04:02:08;7.70;;;4.32;;
14907;SDS011;7545;52.092;7.006;2022-08-21T04:04:35;8.43;;;4.47;;
14907;SDS011;7545;52.092;7.006;2022-08-21T04:07:01;5.05;;;4.03;;
14907;SDS011;7545;52.092;7.006;2022-08-21T04:09:28;6.55;;;4.32;;
14907;SDS011;7545;52.092;7.006;2022-08-21T04:11:54;6.95;;;4.22;;
14907;SDS011;7545;52.092;7.006;2022-08-21T04:14:21;5.03;;;4.35;;
14907;SDS011;7545;52.092;7.006;2022-08-21T04:16:47;6.55;;;4.10;;
14907;SDS011;7545;52.092;7.006;2022-08-21T04:19:13;7.63;;;4.57;;
14907;SDS011;7545;52.092;7.006;2022-08-21T04:21:39;8.77;;;4.63;;
14907;SDS011;7545;52.092;7.006;2022-08-21T04:24:06;8.20;;;4.53;;
14907;SDS011;7545;52.092;7.006;2022-08-21T04:26:34;5.80;;;4.40;;
14907;SDS011;7545;52.092;7.006;2022-08-21T04:29:02;4.43;;;4.03;;
14907;SDS011;7545;52.092;7.006;2022-08-21T04:31:28;4.88;;;4.38;;
14907;SDS011;7545;52.092;7.006;2022-08-21T04:33:54;5.60;;;4.00;;
14907;SDS011;7545;52.092;7.006;2022-08-21T04:36:21;9.15;;;3.67;;
14907;SDS011;7545;52.092;7.006;2022-08-21T04:38:47;5.32;;;3.90;;
14907;SDS011;7545;52.092;7.006;2022-08-21T04:41:13;7.80;;;4.40;;
14907;SDS011;7545;52.092;7.006;2022-08-21T04:43:39;6.38;;;4.20;;
14907;SDS011;7545;52.092;7.006;2022-08-21T04:46:05;7.63;;;4.28;;
14907;SDS011;7545;52.092;7.006;2022-08-21T04:48:31;4.57;;;4.18;;
14907;SDS011;7545;52.092;7.006;2022-08-21T04:51:07;5.30;;;3.70;;
14907;SDS011;7545;52.092;7.006;2022-08-21T04:53:46;5.63;;;4.22;;
14907;SDS011;7545;52.092;7.006;2022-08-21T04:56:25;8.55;;;4.65;;
14907;SDS011;7545;52.092;7.006;2022-08-21T04:58:54;7.80;;;4.03;;
14907;SDS011;7545;52.092;7.006;2022-08-21T05:01:23;5.72;;;5.13;;
14907;SDS011;7545;52.092;7.006;2022-08-21T05:03:57;5.82;;;4.40;;
14907;SDS011;7545;52.092;7.006;2022-08-21T05:06:24;6.60;;;4.63;;
14907;SDS011;7545;52.092;7.006;2022-08-21T05:08:52;6.78;;;4.75;;
14907;SDS011;7545;52.092;7.006;2022-08-21T05:11:20;6.85;;;5.00;;
14907;SDS011;7545;52.092;7.006;2022-08-21T05:13:47;11.65;;;4.95;;
14907;SDS011;7545;52.092;7.006;2022-08-21T05:16:13;6.10;;;4.65;;
14907;SDS011;7545;52.092;7.006;2022-08-21T05:18:39;9.68;;;5.28;;
14907;SDS011;7545;52.092;7.006;2022-08-21T05:21:04;6.10;;;4.90;;
14907;SDS011;7545;52.092;7.006;2022-08-21T05:23:30;6.50;;;4.88;;
14907;SDS011;7545;52.092;7.006;2022-08-21T05:25:56;8.30;;;5.03;;
14907;SDS011;7545;52.092;7.006;2022-08-21T05:28:22;10.02;;;6.38;;
14907;SDS011;7545;52.092;7.006;2022-08-21T05:30:48;7.28;;;5.00;;
14907;SDS011;7545;52.092;7.006;2022-08-21T05:33:14;6.35;;;4.97;;
14907;SDS011;7545;52.092;7.006;2022-08-21T05:35:40;9.32;;;5.70;;
14907;SDS011;7545;52.092;7.006;2022-08-21T05:38:06;9.55;;;5.60;;
14907;SDS011;7545;52.092;7.006;2022-08-21T05:40:32;6.85;;;4.60;;
14907;SDS011;7545;52.092;7.006;2022-08-21T05:42:58;9.65;;;5.50;;
14907;SDS011;7545;52.092;7.006;2022-08-21T05:45:31;6.75;;;5.13;;
14907;SDS011;7545;52.092;7.006;2022-08-21T05:47:57;9.23;;;5.68;;
14907;SDS011;7545;52.092;7.006;2022-08-21T05:50:30;5.78;;;5.18;;
14907;SDS011;7545;52.092;7.006;2022-08-21T05:52:56;10.75;;;6.95;;
14907;SDS011;7545;52.092;7.006;2022-08-21T05:55:21;6.55;;;5.93;;
14907;SDS011;7545;52.092;7.006;2022-08-21T05:57:47;9.27;;;5.40;;
14907;SDS011;7545;52.092;7.006;2022-08-21T06:00:13;7.18;;;5.25;;
14907;SDS011;7545;52.092;7.006;2022-08-21T06:02:39;7.22;;;5.78;;
14907;SDS011;7545;52.092;7.006;2022-08-21T06:05:06;10.82;;;5.85;;
14907;SDS011;7545;52.092;7.006;2022-08-21T06:07:32;8.13;;;5.53;;
14907;SDS011;7545;52.092;7.006;2022-08-21T06:09:57;8.15;;;5.75;;
14907;SDS011;7545;52.092;7.006;2022-08-21T06:12:23;7.75;;;5.63;;
14907;SDS011;7545;52.092;7.006;2022-08-21T06:14:49;8.05;;;6.22;;
14907;SDS011;7545;52.092;7.006;2022-08-21T06:17:17;7.55;;;5.70;;
14907;SDS011;7545;52.092;7.006;2022-08-21T06:19:43;5.88;;;5.03;;
14907;SDS011;7545;52.092;7.006;2022-08-21T06:22:08;8.20;;;5.13;;
14907;SDS011;7545;52.092;7.006;2022-08-21T06:24:34;6.20;;;5.28;;
14907;SDS011;7545;52.092;7.006;2022-08-21T06:27:04;8.27;;;5.13;;
14907;SDS011;7545;52.092;7.006;2022-08-21T06:29:32;9.75;;;5.55;;
14907;SDS011;7545;52.092;7.006;2022-08-21T06:31:58;11.13;;;5.57;;
14907;SDS011;7545;52.092;7.006;2022-08-21T06:34:24;9.38;;;5.18;;
14907;SDS011;7545;52.092;7.006;2022-08-21T06:36:49;8.18;;;4.72;;
14907;SDS011;7545;52.092;7.006;2022-08-21T06:39:15;12.00;;;5.15;;
14907;SDS011;7545;52.092;7.006;2022-08-21T06:41:40;9.80;;;5.53;;
14907;SDS011;7545;52.092;7.006;2022-08-21T06:44:06;10.05;;;5.07;;
14907;SDS011;7545;52.092;7.006;2022-08-21T06:46:32;6.32;;;4.80;;
14907;SDS011;7545;52.092;7.006;2022-08-21T06:48:58;12.55;;;6.15;;
14907;SDS011;7545;52.092;7.006;2022-08-21T06:51:24;8.07;;;5.38;;
14907;SDS011;7545;52.092;7.006;2022-08-21T06:53:51;9.63;;;4.32;;
14907;SDS011;7545;52.092;7.006;2022-08-21T06:56:17;7.55;;;5.10;;
14907;SDS011;7545;52.092;7.006;2022-08-21T06:58:42;9.27;;;4.82;;
14907;SDS011;7545;52.092;7.006;2022-08-21T07:01:08;5.20;;;4.70;;
14907;SDS011;7545;52.092;7.006;2022-08-21T07:03:35;8.35;;;4.22;;
14907;SDS011;7545;52.092;7.006;2022-08-21T07:06:03;8.88;;;4.05;;
14907;SDS011;7545;52.092;7.006;2022-08-21T07:08:31;5.00;;;4.50;;
14907;SDS011;7545;52.092;7.006;2022-08-21T07:10:57;6.72;;;4.30;;
14907;SDS011;7545;52.092;7.006;2022-08-21T07:13:25;7.95;;;4.30;;
14907;SDS011;7545;52.092;7.006;2022-08-21T07:15:51;12.23;;;4.35;;
14907;SDS011;7545;52.092;7.006;2022-08-21T07:18:17;6.28;;;3.45;;
14907;SDS011;7545;52.092;7.006;2022-08-21T07:20:43;5.78;;;3.83;;
14907;SDS011;7545;52.092;7.006;2022-08-21T07:23:11;6.65;;;3.78;;
14907;SDS011;7545;52.092;7.006;2022-08-21T07:25:45;9.52;;;3.75;;
14907;SDS011;7545;52.092;7.006;2022-08-21T07:28:10;4.85;;;3.83;;
14907;SDS011;7545;52.092;7.006;2022-08-21T07:30:36;5.32;;;4.45;;
14907;SDS011;7545;52.092;7.006;2022-08-21T07:33:02;6.63;;;3.97;;
14907;SDS011;7545;52.092;7.006;2022-08-21T07:35:27;7.10;;;4.47;;
14907;SDS011;7545;52.092;7.006;2022-08-21T07:37:53;11.73;;;4.20;;
14907;SDS011;7545;52.092;7.006;2022-08-21T07:40:19;4.72;;;3.08;;
14907;SDS011;7545;52.092;7.006;2022-08-21T07:42:46;9.57;;;4.78;;
14907;SDS011;7545;52.092;7.006;2022-08-21T07:45:14;8.27;;;4.70;;
14907;SDS011;7545;52.092;7.006;2022-08-21T07:47:41;9.30;;;4.00;;
14907;SDS011;7545;52.092;7.006;2022-08-21T07:50:06;8.43;;;4.50;;
14907;SDS011;7545;52.092;7.006;2022-08-21T07:52:32;8.15;;;4.60;;
14907;SDS011;7545;52.092;7.006;2022-08-21T07:54:58;5.93;;;3.83;;
14907;SDS011;7545;52.092;7.006;2022-08-21T07:57:24;7.78;;;3.42;;
14907;SDS011;7545;52.092;7.006;2022-08-21T07:59:50;6.88;;;3.70;;
14907;SDS011;7545;52.092;7.006;2022-08-21T08:02:23;8.50;;;4.07;;
14907;SDS011;7545;52.092;7.006;2022-08-21T08:04:49;9.80;;;3.53;;
14907;SDS011;7545;52.092;7.006;2022-08-21T08:07:15;4.65;;;2.58;;
14907;SDS011;7545;52.092;7.006;2022-08-21T08:09:41;4.63;;;2.33;;
14907;SDS011;7545;52.092;7.006;2022-08-21T08:12:07;6.10;;;2.65;;
14907;SDS011;7545;52.092;7.006;2022-08-21T08:14:32;7.03;;;3.05;;
14907;SDS011;7545;52.092;7.006;2022-08-21T08:16:58;3.38;;;2.30;;
14907;SDS011;7545;52.092;7.006;2022-08-21T08:19:24;8.32;;;2.70;;
14907;SDS011;7545;52.092;7.006;2022-08-21T08:21:50;4.25;;;2.95;;
14907;SDS011;7545;52.092;7.006;2022-08-21T08:24:15;7.82;;;3.30;;
14907;SDS011;7545;52.092;7.006;2022-08-21T08:26:41;4.07;;;2.10;;
14907;SDS011;7545;52.092;7.006;2022-08-21T08:29:06;4.68;;;2.28;;
14907;SDS011;7545;52.092;7.006;2022-08-21T08:31:32;8.52;;;3.88;;
14907;SDS011;7545;52.092;7.006;2022-08-21T08:33:58;5.13;;;2.28;;
14907;SDS011;7545;52.092;7.006;2022-08-21T08:36:31;4.65;;;2.30;;
14907;SDS011;7545;52.092;7.006;2022-08-21T08:38:58;4.35;;;2.10;;
14907;SDS011;7545;52.092;7.006;2022-08-21T08:41:25;5.38;;;2.35;;
14907;SDS011;7545;52.092;7.006;2022-08-21T08:43:53;9.68;;;2.13;;
14907;SDS011;7545;52.092;7.006;2022-08-21T08:46:29;7.00;;;2.72;;
14907;SDS011;7545;52.092;7.006;2022-08-21T08:49:06;8.20;;;2.58;;
14907;SDS011;7545;52.092;7.006;2022-08-21T08:51:39;2.53;;;1.98;;
14907;SDS011;7545;52.092;7.006;2022-08-21T08:54:21;5.03;;;1.60;;
14907;SDS011;7545;52.092;7.006;2022-08-21T08:57:02;6.30;;;1.85;;
14907;SDS011;7545;52.092;7.006;2022-08-21T08:59:42;6.47;;;2.25;;
14907;SDS011;7545;52.092;7.006;2022-08-21T09:02:11;2.83;;;1.75;;
14907;SDS011;7545;52.092;7.006;2022-08-21T09:04:38;3.65;;;1.95;;
14907;SDS011;7545;52.092;7.006;2022-08-21T09:12:56;4.00;;;1.70;;
14907;SDS011;7545;52.092;7.006;2022-08-21T09:26:49;26.95;;;7.28;;
14907;SDS011;7545;52.092;7.006;2022-08-21T09:29:25;12.70;;;5.53;;
14907;SDS011;7545;52.092;7.006;2022-08-21T09:31:54;8.65;;;4.30;;
14907;SDS011;7545;52.092;7.006;2022-08-21T09:34:30;18.33;;;5.70;;
14907;SDS011;7545;52.092;7.006;2022-08-21T09:36:56;14.32;;;4.97;;
14907;SDS011;7545;52.092;7.006;2022-08-21T09:39:24;10.70;;;3.58;;
14907;SDS011;7545;52.092;7.006;2022-08-21T09:41:59;7.18;;;3.17;;
14907;SDS011;7545;52.092;7.006;2022-08-21T09:44:30;4.65;;;2.30;;
14907;SDS011;7545;52.092;7.006;2022-08-21T09:46:57;8.05;;;1.83;;
14907;SDS011;7545;52.092;7.006;2022-08-21T09:49:30;3.35;;;1.08;;
14907;SDS011;7545;52.092;7.006;2022-08-21T09:51:57;3.67;;;1.70;;
14907;SDS011;7545;52.092;7.006;2022-08-21T09:54:31;6.13;;;1.88;;
14907;SDS011;7545;52.092;7.006;2022-08-21T09:59:51;4.38;;;1.48;;
14907;SDS011;7545;52.092;7.006;2022-08-21T10:04:53;3.97;;;1.80;;
14907;SDS011;7545;52.092;7.006;2022-08-21T10:07:32;2.17;;;1.20;;
14907;SDS011;7545;52.092;7.006;2022-08-21T10:13:18;5.15;;;1.10;;
14907;SDS011;7545;52.092;7.006;2022-08-21T10:21:08;3.50;;;1.30;;
14907;SDS011;7545;52.092;7.006;2022-08-21T10:23:48;2.70;;;1.15;;
14907;SDS011;7545;52.092;7.006;2022-08-21T10:43:20;2.17;;;0.82;;
14907;SDS011;7545;52.092;7.006;2022-08-21T10:51:28;1.55;;;0.95;;
14907;SDS011;7545;52.092;7.006;2022-08-21T10:54:48;5.25;;;1.60;;
14907;SDS011;7545;52.092;7.006;2022-08-21T10:57:11;2.33;;;0.70;;
14907;SDS011;7545;52.092;7.006;2022-08-21T10:59:47;2.38;;;0.85;;
14907;SDS011;7545;52.092;7.006;2022-08-21T11:02:30;1.98;;;0.90;;
14907;SDS011;7545;52.092;7.006;2022-08-21T11:05:07;2.97;;;0.90;;
14907;SDS011;7545;52.092;7.006;2022-08-21T11:07:47;3.63;;;1.00;;
14907;SDS011;7545;52.092;7.006;2022-08-21T11:12:54;2.42;;;0.75;;
14907;SDS011;7545;52.092;7.006;2022-08-21T11:26:44;2.97;;;1.00;;
14907;SDS011;7545;52.092;7.006;2022-08-21T11:29:16;3.90;;;0.93;;
14907;SDS011;7545;52.092;7.006;2022-08-21T11:37:19;4.70;;;1.20;;
14907;SDS011;7545;52.092;7.006;2022-08-21T11:40:10;5.63;;;1.52;;
14907;SDS011;7545;52.092;7.006;2022-08-21T11:48:31;3.22;;;1.25;;
14907;SDS011;7545;52.092;7.006;2022-08-21T11:51:13;4.57;;;1.40;;
14907;SDS011;7545;52.092;7.006;2022-08-21T11:53:52;3.67;;;1.38;;
14907;SDS011;7545;52.092;7.006;2022-08-21T11:56:37;4.63;;;1.60;;
14907;SDS011;7545;52.092;7.006;2022-08-21T11:59:11;5.53;;;1.67;;
14907;SDS011;7545;52.092;7.006;2022-08-21T12:01:45;4.72;;;1.25;;
14907;SDS011;7545;52.092;7.006;2022-08-21T12:04:22;6.05;;;1.33;;
14907;SDS011;7545;52.092;7.006;2022-08-21T12:06:56;1.90;;;1.13;;
14907;SDS011;7545;52.092;7.006;2022-08-21T12:09:35;3.03;;;1.20;;
14907;SDS011;7545;52.092;7.006;2022-08-21T12:12:09;3.63;;;1.17;;
14907;SDS011;7545;52.092;7.006;2022-08-21T12:14:51;3.97;;;1.58;;
14907;SDS011;7545;52.092;7.006;2022-08-21T12:20:40;2.58;;;1.23;;
14907;SDS011;7545;52.092;7.006;2022-08-21T12:23:30;6.07;;;1.77;;
14907;SDS011;7545;52.092;7.006;2022-08-21T12:26:00;3.38;;;1.33;;
14907;SDS011;7545;52.092;7.006;2022-08-21T12:28:35;4.68;;;1.23;;
14907;SDS011;7545;52.092;7.006;2022-08-21T12:31:01;3.35;;;1.02;;
14907;SDS011;7545;52.092;7.006;2022-08-21T12:33:31;2.80;;;1.02;;
14907;SDS011;7545;52.092;7.006;2022-08-21T12:36:10;1.77;;;0.98;;
14907;SDS011;7545;52.092;7.006;2022-08-21T12:38:47;4.20;;;0.95;;
14907;SDS011;7545;52.092;7.006;2022-08-21T12:44:15;3.05;;;0.95;;
14907;SDS011;7545;52.092;7.006;2022-08-21T12:46:46;3.25;;;1.63;;
14907;SDS011;7545;52.092;7.006;2022-08-21T12:49:27;4.15;;;1.30;;
14907;SDS011;7545;52.092;7.006;2022-08-21T12:53:07;3.80;;;1.40;;
14907;SDS011;7545;52.092;7.006;2022-08-21T12:55:05;4.43;;;1.58;;
14907;SDS011;7545;52.092;7.006;2022-08-21T12:57:35;3.83;;;1.23;;
14907;SDS011;7545;52.092;7.006;2022-08-21T13:00:04;4.07;;;1.42;;
14907;SDS011;7545;52.092;7.006;2022-08-21T13:02:36;5.70;;;1.20;;
14907;SDS011;7545;52.092;7.006;2022-08-21T13:05:08;2.28;;;1.20;;
14907;SDS011;7545;52.092;7.006;2022-08-21T13:07:42;6.18;;;1.58;;
14907;SDS011;7545;52.092;7.006;2022-08-21T13:10:16;5.72;;;1.70;;
14907;SDS011;7545;52.092;7.006;2022-08-21T13:12:56;3.30;;;1.00;;
14907;SDS011;7545;52.092;7.006;2022-08-21T13:15:26;5.43;;;1.40;;
14907;SDS011;7545;52.092;7.006;2022-08-21T13:17:54;3.70;;;1.23;;
14907;SDS011;7545;52.092;7.006;2022-08-21T13:20:29;3.15;;;1.42;;
14907;SDS011;7545;52.092;7.006;2022-08-21T13:22:56;2.55;;;1.00;;
14907;SDS011;7545;52.092;7.006;2022-08-21T13:25:25;5.15;;;1.10;;
14907;SDS011;7545;52.092;7.006;2022-08-21T13:27:59;3.63;;;1.17;;
14907;SDS011;7545;52.092;7.006;2022-08-21T13:30:34;2.15;;;1.20;;
14907;SDS011;7545;52.092;7.006;2022-08-21T13:33:05;4.00;;;1.08;;
14907;SDS011;7545;52.092;7.006;2022-08-21T13:36:03;3.58;;;1.25;;
14907;SDS011;7545;52.092;7.006;2022-08-21T13:38:34;2.67;;;1.00;;
14907;SDS011;7545;52.092;7.006;2022-08-21T13:41:03;2.95;;;0.93;;
14907;SDS011;7545;52.092;7.006;2022-08-21T13:43:36;2.92;;;1.25;;
14907;SDS011;7545;52.092;7.006;2022-08-21T13:46:06;2.65;;;1.40;;
14907;SDS011;7545;52.092;7.006;2022-08-21T13:48:34;2.20;;;0.80;;
14907;SDS011;7545;52.092;7.006;2022-08-21T13:51:01;3.08;;;0.93;;
14907;SDS011;7545;52.092;7.006;2022-08-21T13:53:30;2.65;;;1.02;;
14907;SDS011;7545;52.092;7.006;2022-08-21T13:56:01;3.33;;;1.02;;
14907;SDS011;7545;52.092;7.006;2022-08-21T13:58:45;4.65;;;1.33;;
14907;SDS011;7545;52.092;7.006;2022-08-21T14:01:19;2.03;;;0.93;;
14907;SDS011;7545;52.092;7.006;2022-08-21T14:06:35;3.78;;;1.08;;
14907;SDS011;7545;52.092;7.006;2022-08-21T14:09:09;3.05;;;1.02;;
14907;SDS011;7545;52.092;7.006;2022-08-21T14:11:44;5.88;;;1.77;;
14907;SDS011;7545;52.092;7.006;2022-08-21T14:14:21;3.25;;;1.48;;
14907;SDS011;7545;52.092;7.006;2022-08-21T14:16:54;1.55;;;0.98;;
14907;SDS011;7545;52.092;7.006;2022-08-21T14:19:35;2.70;;;1.40;;
14907;SDS011;7545;52.092;7.006;2022-08-21T14:22:22;1.67;;;0.73;;
14907;SDS011;7545;52.092;7.006;2022-08-21T14:25:08;3.45;;;1.02;;
14907;SDS011;7545;52.092;7.006;2022-08-21T14:27:38;2.00;;;0.90;;
14907;SDS011;7545;52.092;7.006;2022-08-21T14:30:11;3.22;;;1.15;;
14907;SDS011;7545;52.092;7.006;2022-08-21T14:32:43;3.05;;;0.90;;
14907;SDS011;7545;52.092;7.006;2022-08-21T14:35:10;3.15;;;0.90;;
14907;SDS011;7545;52.092;7.006;2022-08-21T14:37:36;2.70;;;1.10;;
14907;SDS011;7545;52.092;7.006;2022-08-21T14:40:02;2.35;;;1.05;;
14907;SDS011;7545;52.092;7.006;2022-08-21T14:42:29;1.65;;;0.80;;
14907;SDS011;7545;52.092;7.006;2022-08-21T14:44:57;2.38;;;0.90;;
14907;SDS011;7545;52.092;7.006;2022-08-21T14:47:26;3.13;;;1.20;;
14907;SDS011;7545;52.092;7.006;2022-08-21T14:49:53;5.82;;;1.25;;
14907;SDS011;7545;52.092;7.006;2022-08-21T14:52:19;2.47;;;1.00;;
14907;SDS011;7545;52.092;7.006;2022-08-21T14:54:45;2.78;;;1.00;;
14907;SDS011;7545;52.092;7.006;2022-08-21T14:57:11;4.15;;;1.15;;
14907;SDS011;7545;52.092;7.006;2022-08-21T14:59:37;3.28;;;0.90;;
14907;SDS011;7545;52.092;7.006;2022-08-21T15:02:04;2.67;;;0.85;;
14907;SDS011;7545;52.092;7.006;2022-08-21T15:04:31;2.88;;;1.52;;
14907;SDS011;7545;52.092;7.006;2022-08-21T15:06:58;4.13;;;1.15;;
14907;SDS011;7545;52.092;7.006;2022-08-21T15:09:23;3.80;;;0.85;;
14907;SDS011;7545;52.092;7.006;2022-08-21T15:11:49;2.83;;;1.02;;
14907;SDS011;7545;52.092;7.006;2022-08-21T15:14:19;0.98;;;0.73;;
14907;SDS011;7545;52.092;7.006;2022-08-21T15:16:48;1.63;;;0.90;;
14907;SDS011;7545;52.092;7.006;2022-08-21T15:19:14;2.58;;;0.90;;
14907;SDS011;7545;52.092;7.006;2022-08-21T15:21:39;1.88;;;1.10;;
14907;SDS011;7545;52.092;7.006;2022-08-21T15:24:05;2.20;;;0.90;;
14907;SDS011;7545;52.092;7.006;2022-08-21T15:26:31;3.35;;;1.20;;
14907;SDS011;7545;52.092;7.006;2022-08-21T15:28:56;5.68;;;1.17;;
14907;SDS011;7545;52.092;7.006;2022-08-21T15:31:24;3.53;;;1.00;;
14907;SDS011;7545;52.092;7.006;2022-08-21T15:33:50;2.65;;;1.15;;
14907;SDS011;7545;52.092;7.006;2022-08-21T15:36:16;2.42;;;1.10;;
14907;SDS011;7545;52.092;7.006;2022-08-21T15:38:44;2.97;;;1.30;;
14907;SDS011;7545;52.092;7.006;2022-08-21T15:41:10;2.60;;;0.90;;
14907;SDS011;7545;52.092;7.006;2022-08-21T15:43:46;2.40;;;0.90;;
14907;SDS011;7545;52.092;7.006;2022-08-21T15:46:14;2.40;;;0.90;;
14907;SDS011;7545;52.092;7.006;2022-08-21T15:48:41;2.05;;;1.30;;
14907;SDS011;7545;52.092;7.006;2022-08-21T15:51:07;6.45;;;2.28;;
14907;SDS011;7545;52.092;7.006;2022-08-21T15:53:37;4.70;;;1.88;;
14907;SDS011;7545;52.092;7.006;2022-08-21T15:56:06;2.63;;;0.93;;
14907;SDS011;7545;52.092;7.006;2022-08-21T15:58:37;3.13;;;0.88;;
14907;SDS011;7545;52.092;7.006;2022-08-21T16:01:03;2.90;;;1.08;;
14907;SDS011;7545;52.092;7.006;2022-08-21T16:03:29;2.58;;;1.08;;
14907;SDS011;7545;52.092;7.006;2022-08-21T16:05:55;2.90;;;1.48;;
14907;SDS011;7545;52.092;7.006;2022-08-21T16:08:22;3.05;;;1.55;;
14907;SDS011;7545;52.092;7.006;2022-08-21T16:10:48;1.92;;;1.00;;
14907;SDS011;7545;52.092;7.006;2022-08-21T16:13:16;3.20;;;1.00;;
14907;SDS011;7545;52.092;7.006;2022-08-21T16:15:47;4.22;;;1.50;;
14907;SDS011;7545;52.092;7.006;2022-08-21T16:18:12;4.35;;;1.52;;
14907;SDS011;7545;52.092;7.006;2022-08-21T16:20:38;2.40;;;1.88;;
14907;SDS011;7545;52.092;7.006;2022-08-21T16:23:04;5.13;;;2.28;;
14907;SDS011;7545;52.092;7.006;2022-08-21T16:25:30;2.40;;;1.33;;
14907;SDS011;7545;52.092;7.006;2022-08-21T16:27:58;3.45;;;1.83;;
14907;SDS011;7545;52.092;7.006;2022-08-21T16:30:26;3.75;;;1.83;;
14907;SDS011;7545;52.092;7.006;2022-08-21T16:32:53;1.92;;;1.02;;
14907;SDS011;7545;52.092;7.006;2022-08-21T16:35:20;2.85;;;1.60;;
14907;SDS011;7545;52.092;7.006;2022-08-21T16:37:46;2.95;;;1.33;;
14907;SDS011;7545;52.092;7.006;2022-08-21T16:40:13;2.78;;;1.38;;
14907;SDS011;7545;52.092;7.006;2022-08-21T16:42:39;3.20;;;1.30;;
14907;SDS011;7545;52.092;7.006;2022-08-21T16:45:07;2.60;;;1.30;;